Time;durP1;ratioP1;P1;durP2;ratioP2;P2;SDS_P1;SDS_P2;PMS_P1;PMS_P2;Temp;Humidity;BMP_temperature;BMP_pressure;BME280_temperature;BME280_humidity;BME280_pressure;Samples;Min_cycle;Max_cycle;Signal;HPM_P1;HPM_P2
2022/06/17 00:00:50;;;;;;;3.55;1.92;;;;;;;;;;5014616;28;20025;-70
2022/06/17 00:03:16;;;;;;;2.80;1.67;;;;;;;;;;5014401;28;20026;-71
2022/06/17 00:05:41;;;;;;;3.72;1.60;;;;;;;;;;5014621;28;20088;-70
2022/06/17 00:08:13;;;;;;;6.60;1.73;;;;;;;;;;5012937;28;20038;-70
2022/06/17 00:10:38;;;;;;;3.15;1.65;;;;;;;;;;5012494;28;20026;-69
2022/06/17 00:13:04;;;;;;;2.50;1.70;;;;;;;;;;5013651;28;20025;-70
2022/06/17 00:15:29;;;;;;;1.92;1.60;;;;;;;;;;5014376;28;20255;-70
2022/06/17 00:17:54;;;;;;;5.30;1.73;;;;;;;;;;5013894;28;20034;-70
2022/06/17 00:20:23;;;;;;;5.15;1.83;;;;;;;;;;5014054;28;20343;-70
2022/06/17 00:22:52;;;;;;;3.95;1.85;;;;;;;;;;5013467;28;20088;-71
2022/06/17 00:25:28;;;;;;;5.18;1.83;;;;;;;;;;5016156;28;20112;-74
2022/06/17 00:27:55;;;;;;;2.92;1.63;;;;;;;;;;5016431;28;20022;-74
2022/06/17 00:30:23;;;;;;;3.08;1.70;;;;;;;;;;5016287;28;20066;-74
2022/06/17 00:32:57;;;;;;;6.55;1.67;;;;;;;;;;5014329;28;20498;-74
2022/06/17 00:35:27;;;;;;;4.35;1.73;;;;;;;;;;5017102;28;20034;-75
2022/06/17 00:37:52;;;;;;;2.28;1.60;;;;;;;;;;5017075;28;20030;-73
2022/06/17 00:40:22;;;;;;;2.67;1.40;;;;;;;;;;5017654;28;20037;-74
2022/06/17 00:42:48;;;;;;;2.55;1.55;;;;;;;;;;5016366;28;20431;-74
2022/06/17 00:45:29;;;;;;;1.90;1.50;;;;;;;;;;5016792;28;20080;-73
2022/06/17 00:48:16;;;;;;;3.88;1.83;;;;;;;;;;5016333;28;20053;-74
2022/06/17 00:50:56;;;;;;;3.78;1.70;;;;;;;;;;5016502;28;20021;-74
2022/06/17 00:53:24;;;;;;;3.78;1.58;;;;;;;;;;5017930;28;20422;-74
2022/06/17 00:55:58;;;;;;;3.97;1.55;;;;;;;;;;5017534;28;20105;-74
2022/06/17 00:58:30;;;;;;;2.10;1.60;;;;;;;;;;5018143;28;20026;-74
2022/06/17 01:00:59;;;;;;;2.83;1.70;;;;;;;;;;5017658;28;20100;-75
2022/06/17 01:03:34;;;;;;;3.63;1.48;;;;;;;;;;5017628;28;20038;-74
2022/06/17 01:06:13;;;;;;;5.15;1.80;;;;;;;;;;5000947;28;20022;-75
2022/06/17 01:11:32;;;;;;;6.63;1.80;;;;;;;;;;5018710;28;20091;-74
2022/06/17 01:14:01;;;;;;;3.33;1.50;;;;;;;;;;5021182;28;20021;-75
2022/06/17 01:16:37;;;;;;;4.15;1.45;;;;;;;;;;5020670;28;20033;-74
2022/06/17 01:19:12;;;;;;;2.97;1.58;;;;;;;;;;5020367;28;20522;-74
2022/06/17 01:21:42;;;;;;;2.47;1.60;;;;;;;;;;5017646;28;20109;-74
2022/06/17 01:24:08;;;;;;;2.90;1.55;;;;;;;;;;5019676;28;20030;-74
2022/06/17 01:26:34;;;;;;;3.63;1.60;;;;;;;;;;5019003;28;20028;-75
2022/06/17 01:28:59;;;;;;;2.00;1.30;;;;;;;;;;5020086;28;20029;-74
2022/06/17 01:31:24;;;;;;;2.73;1.70;;;;;;;;;;5018715;28;20492;-74
2022/06/17 01:33:50;;;;;;;2.73;1.80;;;;;;;;;;5019476;28;20670;-75
2022/06/17 01:36:23;;;;;;;3.20;1.75;;;;;;;;;;5019555;28;20259;-73
2022/06/17 01:38:52;;;;;;;3.73;1.70;;;;;;;;;;5019213;28;20018;-74
2022/06/17 01:41:21;;;;;;;3.03;1.80;;;;;;;;;;5019523;28;20251;-75
2022/06/17 01:43:58;;;;;;;4.68;1.70;;;;;;;;;;5018096;28;20030;-73
2022/06/17 01:46:33;;;;;;;3.55;1.58;;;;;;;;;;5017553;28;20068;-74
2022/06/17 01:49:03;;;;;;;2.30;1.50;;;;;;;;;;5019367;28;20108;-73
2022/06/17 01:51:32;;;;;;;4.63;1.83;;;;;;;;;;5019204;28;20037;-73
2022/06/17 01:54:02;;;;;;;3.85;1.73;;;;;;;;;;5018878;28;20061;-73
2022/06/17 01:56:30;;;;;;;3.40;1.60;;;;;;;;;;5018669;28;20113;-73
2022/06/17 01:59:01;;;;;;;2.90;1.70;;;;;;;;;;5017954;28;20026;-72
2022/06/17 02:01:29;;;;;;;3.85;1.60;;;;;;;;;;5017865;28;20025;-74
2022/06/17 02:04:02;;;;;;;3.30;1.55;;;;;;;;;;5018255;28;20100;-72
2022/06/17 02:06:51;;;;;;;4.70;1.75;;;;;;;;;;5017799;28;20022;-74
2022/06/17 02:09:17;;;;;;;2.55;1.50;;;;;;;;;;5018934;28;20030;-73
2022/06/17 02:11:43;;;;;;;5.32;2.00;;;;;;;;;;5018696;28;20041;-74
2022/06/17 02:14:09;;;;;;;3.58;1.85;;;;;;;;;;5018709;28;20030;-73
2022/06/17 02:16:44;;;;;;;3.25;1.50;;;;;;;;;;5019396;28;20555;-74
2022/06/17 02:19:10;;;;;;;2.58;1.58;;;;;;;;;;5017758;28;20068;-74
2022/06/17 02:21:43;;;;;;;1.80;1.60;;;;;;;;;;5017076;28;20022;-74
2022/06/17 02:24:10;;;;;;;6.95;2.05;;;;;;;;;;5018576;28;20407;-74
2022/06/17 02:26:37;;;;;;;4.10;1.60;;;;;;;;;;5016839;28;20037;-73
2022/06/17 02:29:06;;;;;;;2.47;1.48;;;;;;;;;;5017018;28;20125;-74
2022/06/17 02:31:33;;;;;;;3.28;1.77;;;;;;;;;;5018470;28;20507;-74
2022/06/17 02:33:58;;;;;;;1.52;1.42;;;;;;;;;;5018456;28;20018;-74
2022/06/17 02:36:33;;;;;;;2.67;1.63;;;;;;;;;;5019425;28;20105;-74
2022/06/17 02:38:59;;;;;;;3.38;1.67;;;;;;;;;;5018898;28;20030;-74
2022/06/17 02:41:27;;;;;;;2.05;1.67;;;;;;;;;;5020040;28;20030;-74
2022/06/17 02:44:17;;;;;;;5.97;1.83;;;;;;;;;;5018534;28;20021;-74
2022/06/17 02:46:46;;;;;;;5.97;1.83;;;;;;;;;;5019954;28;20026;-74
2022/06/17 02:49:26;;;;;;;3.80;1.80;;;;;;;;;;5019050;28;20029;-75
2022/06/17 02:51:52;;;;;;;3.20;1.70;;;;;;;;;;5019276;28;20032;-74
2022/06/17 02:54:30;;;;;;;3.25;1.80;;;;;;;;;;5018468;28;20026;-73
2022/06/17 02:56:57;;;;;;;2.90;1.80;;;;;;;;;;5019843;28;20106;-74
2022/06/17 02:59:44;;;;;;;3.60;2.00;;;;;;;;;;5018821;28;20040;-74
2022/06/17 03:02:17;;;;;;;6.15;1.58;;;;;;;;;;5019883;28;20045;-73
2022/06/17 03:04:43;;;;;;;2.92;1.80;;;;;;;;;;5019081;28;20034;-74
2022/06/17 03:07:17;;;;;;;4.60;1.80;;;;;;;;;;5020325;28;20104;-73
2022/06/17 03:09:43;;;;;;;2.53;1.60;;;;;;;;;;5020356;28;20037;-74
2022/06/17 03:12:12;;;;;;;5.68;1.92;;;;;;;;;;5019848;28;20034;-74
2022/06/17 03:14:42;;;;;;;2.72;1.70;;;;;;;;;;5019740;28;20085;-74
2022/06/17 03:17:11;;;;;;;3.33;2.00;;;;;;;;;;5020523;28;20053;-74
2022/06/17 03:19:37;;;;;;;5.50;1.85;;;;;;;;;;5019844;28;20030;-73
2022/06/17 03:22:05;;;;;;;3.25;1.98;;;;;;;;;;5020211;28;20578;-74
2022/06/17 03:25:07;;;;;;;3.63;1.85;;;;;;;;;;5018986;28;20022;-73
2022/06/17 03:27:55;;;;;;;5.50;2.00;;;;;;;;;;5019282;28;20045;-73
2022/06/17 03:30:29;;;;;;;3.22;1.52;;;;;;;;;;5019031;28;20045;-73
2022/06/17 03:33:08;;;;;;;4.30;1.85;;;;;;;;;;5018287;28;20022;-73
2022/06/17 03:35:35;;;;;;;4.15;2.13;;;;;;;;;;5018995;28;20479;-74
2022/06/17 03:38:04;;;;;;;6.25;1.67;;;;;;;;;;5017125;28;20052;-74
2022/06/17 03:40:37;;;;;;;6.30;1.80;;;;;;;;;;5016613;28;20030;-75
2022/06/17 03:43:10;;;;;;;4.68;2.00;;;;;;;;;;5016875;28;20053;-74
2022/06/17 03:45:43;;;;;;;5.93;1.80;;;;;;;;;;5017225;28;20140;-74
2022/06/17 03:48:36;;;;;;;5.20;1.83;;;;;;;;;;5016926;28;20034;-73
2022/06/17 03:51:02;;;;;;;2.65;1.80;;;;;;;;;;5016611;28;20025;-73
2022/06/17 03:53:36;;;;;;;5.10;1.90;;;;;;;;;;5015109;28;20033;-75
2022/06/17 03:56:11;;;;;;;2.92;1.75;;;;;;;;;;5014394;28;20026;-74
2022/06/17 03:58:38;;;;;;;4.28;2.00;;;;;;;;;;5015366;28;20108;-73
2022/06/17 04:01:27;;;;;;;2.88;1.80;;;;;;;;;;5016231;28;20022;-75
2022/06/17 04:03:56;;;;;;;2.17;1.88;;;;;;;;;;5015618;28;20497;-74
2022/06/17 04:06:25;;;;;;;3.08;1.75;;;;;;;;;;5015035;28;20041;-72
2022/06/17 04:08:59;;;;;;;4.20;1.88;;;;;;;;;;5014861;28;20109;-73
2022/06/17 04:11:28;;;;;;;4.93;2.05;;;;;;;;;;5015122;28;20022;-74
2022/06/17 04:13:55;;;;;;;4.00;1.77;;;;;;;;;;5015456;28;20113;-74
2022/06/17 04:16:36;;;;;;;3.63;1.70;;;;;;;;;;5016139;28;20387;-73
2022/06/17 04:19:23;;;;;;;5.65;1.65;;;;;;;;;;5016173;28;20434;-73
2022/06/17 04:21:49;;;;;;;3.90;1.80;;;;;;;;;;5016110;28;20037;-74
2022/06/17 04:24:21;;;;;;;2.78;1.67;;;;;;;;;;5015927;28;20070;-75
2022/06/17 04:26:54;;;;;;;6.68;1.75;;;;;;;;;;5016052;28;20061;-74
2022/06/17 04:29:28;;;;;;;3.07;1.70;;;;;;;;;;5014959;28;20144;-74
2022/06/17 04:32:09;;;;;;;3.90;1.90;;;;;;;;;;5016423;28;20112;-74
2022/06/17 04:34:35;;;;;;;7.35;2.08;;;;;;;;;;5015775;28;20065;-74
2022/06/17 04:37:05;;;;;;;1.70;1.48;;;;;;;;;;5014088;28;20025;-73
2022/06/17 04:39:37;;;;;;;3.05;2.17;;;;;;;;;;5014956;28;20038;-73
2022/06/17 04:42:10;;;;;;;3.90;1.88;;;;;;;;;;5014999;28;20026;-73
2022/06/17 04:44:37;;;;;;;4.95;1.83;;;;;;;;;;5015602;28;20026;-72
2022/06/17 04:47:05;;;;;;;3.47;1.90;;;;;;;;;;5014793;28;20061;-73
2022/06/17 04:49:34;;;;;;;4.97;1.77;;;;;;;;;;5015168;28;20124;-74
2022/06/17 04:52:04;;;;;;;5.88;1.90;;;;;;;;;;5015115;28;20613;-74
2022/06/17 04:54:31;;;;;;;7.65;1.90;;;;;;;;;;5014679;28;20044;-74
2022/06/17 04:56:59;;;;;;;4.80;1.80;;;;;;;;;;5013024;28;20376;-75
2022/06/17 04:59:32;;;;;;;2.58;1.50;;;;;;;;;;5018534;28;20053;-74
2022/06/17 05:01:59;;;;;;;2.88;1.70;;;;;;;;;;5017042;28;20113;-73
2022/06/17 05:04:26;;;;;;;4.10;1.70;;;;;;;;;;5018252;28;20040;-74
2022/06/17 05:06:52;;;;;;;3.53;1.80;;;;;;;;;;5018583;28;20044;-74
2022/06/17 05:09:28;;;;;;;4.43;1.60;;;;;;;;;;5017791;28;20558;-74
2022/06/17 05:12:10;;;;;;;6.38;1.88;;;;;;;;;;5025356;28;20028;-74
2022/06/17 05:14:47;;;;;;;3.35;1.75;;;;;;;;;;5026879;28;20036;-74
2022/06/17 05:17:16;;;;;;;4.20;1.52;;;;;;;;;;5026269;28;20028;-73
2022/06/17 05:19:41;;;;;;;5.72;1.80;;;;;;;;;;5022351;28;20034;-74
2022/06/17 05:22:13;;;;;;;3.37;1.70;;;;;;;;;;5021029;28;20495;-74
2022/06/17 05:24:39;;;;;;;6.20;1.90;;;;;;;;;;5019487;28;20377;-73
2022/06/17 05:27:04;;;;;;;4.10;1.80;;;;;;;;;;5021235;28;20058;-74
2022/06/17 05:29:29;;;;;;;4.25;1.60;;;;;;;;;;5021828;28;20033;-74
2022/06/17 05:31:55;;;;;;;5.83;1.70;;;;;;;;;;5021465;28;20022;-74
2022/06/17 05:34:20;;;;;;;2.17;1.42;;;;;;;;;;5021175;28;20338;-73
2022/06/17 05:36:45;;;;;;;5.93;2.22;;;;;;;;;;5019995;28;20080;-73
2022/06/17 05:39:10;;;;;;;3.67;1.60;;;;;;;;;;5020494;28;20479;-74
2022/06/17 05:41:35;;;;;;;2.80;1.37;;;;;;;;;;5021289;28;20775;-74
2022/06/17 05:44:01;;;;;;;3.47;1.50;;;;;;;;;;5019636;28;20621;-73
2022/06/17 05:46:26;;;;;;;3.65;1.75;;;;;;;;;;5019489;28;20030;-74
2022/06/17 05:48:51;;;;;;;3.33;1.42;;;;;;;;;;5022768;28;20036;-72
2022/06/17 05:51:17;;;;;;;3.33;1.23;;;;;;;;;;5020958;28;20050;-73
2022/06/17 05:53:42;;;;;;;2.58;1.33;;;;;;;;;;5021712;28;20275;-74
2022/06/17 05:56:08;;;;;;;3.53;1.50;;;;;;;;;;5019835;28;20050;-74
2022/06/17 05:58:33;;;;;;;6.13;1.50;;;;;;;;;;5019772;28;20263;-74
2022/06/17 06:00:58;;;;;;;2.00;1.30;;;;;;;;;;5019733;28;20461;-73
2022/06/17 06:03:27;;;;;;;4.07;1.40;;;;;;;;;;5017588;28;20690;-74
2022/06/17 06:05:52;;;;;;;3.83;1.20;;;;;;;;;;5018384;28;20748;-74
2022/06/17 06:08:18;;;;;;;6.00;1.60;;;;;;;;;;5019403;28;20076;-74
2022/06/17 06:10:44;;;;;;;2.42;1.13;;;;;;;;;;5017380;28;20030;-73
2022/06/17 06:13:19;;;;;;;2.05;1.20;;;;;;;;;;5018488;28;20400;-73
2022/06/17 06:15:47;;;;;;;2.95;1.30;;;;;;;;;;5018226;28;20018;-73
2022/06/17 06:18:19;;;;;;;2.33;1.27;;;;;;;;;;5017865;28;20057;-74
2022/06/17 06:20:44;;;;;;;2.47;1.30;;;;;;;;;;5017913;28;20033;-72
2022/06/17 06:23:09;;;;;;;3.33;1.40;;;;;;;;;;5017486;28;20022;-73
2022/06/17 06:25:35;;;;;;;3.38;1.27;;;;;;;;;;5017451;28;20026;-73
2022/06/17 06:28:11;;;;;;;5.07;1.27;;;;;;;;;;5017924;28;20498;-74
2022/06/17 06:30:37;;;;;;;4.07;1.35;;;;;;;;;;5016558;28;20080;-74
2022/06/17 06:33:03;;;;;;;2.65;1.10;;;;;;;;;;5017579;28;20026;-74
2022/06/17 06:35:32;;;;;;;2.22;1.10;;;;;;;;;;5017664;28;20176;-75
2022/06/17 06:37:57;;;;;;;3.97;1.25;;;;;;;;;;5018227;28;20433;-74
2022/06/17 06:40:22;;;;;;;5.07;1.35;;;;;;;;;;5017590;28;20113;-74
2022/06/17 06:42:50;;;;;;;3.27;0.93;;;;;;;;;;5016288;28;20061;-74
2022/06/17 06:45:20;;;;;;;2.40;1.02;;;;;;;;;;5016223;28;20749;-74
2022/06/17 06:47:46;;;;;;;3.30;1.17;;;;;;;;;;5015559;28;20045;-77
2022/06/17 06:50:14;;;;;;;3.35;1.30;;;;;;;;;;5017125;28;20033;-74
2022/06/17 06:52:40;;;;;;;2.17;1.20;;;;;;;;;;5017414;28;20022;-74
2022/06/17 06:55:05;;;;;;;3.90;1.37;;;;;;;;;;5016794;28;20028;-74
2022/06/17 06:57:30;;;;;;;8.07;1.23;;;;;;;;;;5016623;28;20346;-75
2022/06/17 07:00:00;;;;;;;4.03;1.30;;;;;;;;;;5017329;28;20108;-74
2022/06/17 07:02:25;;;;;;;1.30;1.02;;;;;;;;;;5017460;28;20088;-74
2022/06/17 07:04:50;;;;;;;1.90;1.40;;;;;;;;;;5017210;28;20026;-75
2022/06/17 07:07:15;;;;;;;5.07;1.20;;;;;;;;;;5018341;28;20298;-74
2022/06/17 07:09:41;;;;;;;2.75;1.30;;;;;;;;;;5018233;28;20259;-74
2022/06/17 07:12:07;;;;;;;2.80;1.30;;;;;;;;;;5017204;28;20030;-74
2022/06/17 07:14:32;;;;;;;2.53;1.20;;;;;;;;;;5017638;28;20283;-75
2022/06/17 07:16:57;;;;;;;7.53;1.40;;;;;;;;;;5018757;28;20064;-75
2022/06/17 07:19:22;;;;;;;3.03;1.40;;;;;;;;;;5019151;28;20271;-75
2022/06/17 07:21:48;;;;;;;3.50;1.30;;;;;;;;;;5016703;28;20037;-74
2022/06/17 07:24:15;;;;;;;3.38;1.30;;;;;;;;;;5018466;28;20115;-74
2022/06/17 07:26:40;;;;;;;5.90;1.58;;;;;;;;;;5017483;28;20498;-75
2022/06/17 07:29:06;;;;;;;2.00;1.15;;;;;;;;;;5017372;28;20045;-75
2022/06/17 07:31:31;;;;;;;7.63;1.20;;;;;;;;;;5017794;28;20018;-73
2022/06/17 07:33:57;;;;;;;6.20;1.20;;;;;;;;;;5017096;28;20032;-75
2022/06/17 07:41:56;;;;;;;7.32;1.23;;;;;;;;;;5017437;28;20091;-75
2022/06/17 07:44:21;;;;;;;2.17;1.10;;;;;;;;;;5018075;28;20025;-74
2022/06/17 07:46:47;;;;;;;4.10;1.10;;;;;;;;;;5017812;28;20029;-75
2022/06/17 07:49:13;;;;;;;2.38;1.30;;;;;;;;;;5017481;28;20056;-75
2022/06/17 07:51:38;;;;;;;6.03;1.40;;;;;;;;;;5016903;28;20060;-75
2022/06/17 07:54:03;;;;;;;6.37;1.50;;;;;;;;;;5016318;28;20026;-75
2022/06/17 07:56:29;;;;;;;3.17;1.30;;;;;;;;;;5015789;28;20313;-75
2022/06/17 07:58:54;;;;;;;4.65;1.33;;;;;;;;;;5017727;28;20029;-76
2022/06/17 08:01:19;;;;;;;6.77;1.30;;;;;;;;;;5017898;28;20023;-75
2022/06/17 08:03:45;;;;;;;4.70;1.27;;;;;;;;;;5017291;28;20644;-75
2022/06/17 08:06:13;;;;;;;13.10;1.50;;;;;;;;;;5017028;28;20026;-74
2022/06/17 08:08:39;;;;;;;7.32;1.38;;;;;;;;;;5017093;28;20030;-75
2022/06/17 08:11:05;;;;;;;1.80;1.05;;;;;;;;;;5017192;28;20125;-75
2022/06/17 08:13:30;;;;;;;2.60;1.20;;;;;;;;;;5017375;28;20061;-74
2022/06/17 08:15:59;;;;;;;4.55;1.50;;;;;;;;;;5016720;28;20029;-74
2022/06/17 08:18:26;;;;;;;2.00;1.02;;;;;;;;;;5017150;28;20407;-74
2022/06/17 08:20:51;;;;;;;2.90;1.02;;;;;;;;;;5016277;28;20076;-75
2022/06/17 08:23:17;;;;;;;4.00;1.10;;;;;;;;;;5015878;28;20022;-75
2022/06/17 08:25:43;;;;;;;1.50;1.10;;;;;;;;;;5015865;28;20290;-74
2022/06/17 08:28:10;;;;;;;2.63;1.13;;;;;;;;;;5015700;28;20403;-76
2022/06/17 08:30:39;;;;;;;3.10;1.13;;;;;;;;;;5016220;28;20030;-71
2022/06/17 08:33:05;;;;;;;4.55;1.00;;;;;;;;;;5014987;28;20554;-75
2022/06/17 08:35:41;;;;;;;7.05;1.13;;;;;;;;;;5015462;28;20053;-75
2022/06/17 08:38:13;;;;;;;1.25;1.10;;;;;;;;;;5015362;28;20033;-75
2022/06/17 08:40:50;;;;;;;6.03;1.17;;;;;;;;;;5016173;28;20026;-74
2022/06/17 08:43:45;;;;;;;6.78;1.30;;;;;;;;;;5015585;28;20522;-76
2022/06/17 08:46:29;;;;;;;;;;;;;;;;;;5016078;28;20132;-74
2022/06/17 08:49:06;;;;;;;5.45;1.42;;;;;;;;;;5015168;28;19917;-73
2022/06/17 08:51:57;;;;;;;3.38;1.05;;;;;;;;;;5015771;28;20026;-74
2022/06/17 08:54:58;;;;;;;2.00;1.00;;;;;;;;;;5015209;28;20025;-73
2022/06/17 08:57:39;;;;;;;3.30;1.15;;;;;;;;;;5012592;28;20380;-75
2022/06/17 09:00:07;;;;;;;2.15;1.17;;;;;;;;;;5013957;28;20030;-75
2022/06/17 09:02:47;;;;;;;3.25;1.13;;;;;;;;;;5015335;28;20029;-74
2022/06/17 09:05:40;;;;;;;3.20;1.00;;;;;;;;;;5018016;28;20509;-75
2022/06/17 09:08:37;;;;;;;3.47;1.30;;;;;;;;;;5019271;28;20113;-74
2022/06/17 09:11:17;;;;;;;4.30;1.20;;;;;;;;;;5015472;28;20029;-75
2022/06/17 09:14:24;;;;;;;3.50;0.98;;;;;;;;;;5015919;28;20024;-74
2022/06/17 09:16:59;;;;;;;7.45;1.30;;;;;;;;;;5016205;28;20030;-73
2022/06/17 09:19:29;;;;;;;2.55;1.10;;;;;;;;;;5016300;28;20080;-74
2022/06/17 09:22:00;;;;;;;2.25;1.10;;;;;;;;;;5014587;28;20022;-74
2022/06/17 09:24:30;;;;;;;4.57;1.20;;;;;;;;;;5015777;28;20030;-74
2022/06/17 09:27:05;;;;;;;4.70;0.85;;;;;;;;;;5015839;28;20125;-74
2022/06/17 09:29:42;;;;;;;2.30;1.13;;;;;;;;;;5014787;28;20141;-74
2022/06/17 09:32:25;;;;;;;2.45;0.90;;;;;;;;;;5016036;28;20391;-72
2022/06/17 09:34:58;;;;;;;6.97;1.58;;;;;;;;;;5014499;28;20029;-74
2022/06/17 09:37:34;;;;;;;1.85;0.82;;;;;;;;;;5015615;28;20068;-74
2022/06/17 09:40:04;;;;;;;3.13;0.98;;;;;;;;;;5016198;28;20550;-74
2022/06/17 09:42:36;;;;;;;2.80;1.23;;;;;;;;;;5016103;28;20384;-75
2022/06/17 09:45:10;;;;;;;2.53;1.00;;;;;;;;;;5018520;28;20509;-74
2022/06/17 09:47:49;;;;;;;5.82;1.13;;;;;;;;;;5018994;28;20029;-74
2022/06/17 09:50:36;;;;;;;2.63;1.00;;;;;;;;;;5019546;28;20034;-74
2022/06/17 09:53:23;;;;;;;2.30;0.82;;;;;;;;;;5018862;28;20112;-74
2022/06/17 09:55:55;;;;;;;1.83;1.00;;;;;;;;;;5018091;28;20069;-75
2022/06/17 09:58:47;;;;;;;1.73;0.90;;;;;;;;;;5018643;28;20032;-74
2022/06/17 10:01:12;;;;;;;2.38;1.00;;;;;;;;;;5019020;28;20072;-73
2022/06/17 10:03:39;;;;;;;4.30;0.98;;;;;;;;;;5017933;28;20030;-74
2022/06/17 10:06:23;;;;;;;2.03;0.80;;;;;;;;;;5018440;28;20080;-74
2022/06/17 10:09:01;;;;;;;;;;;;;;;;;;5018238;28;20529;-74
2022/06/17 10:11:43;;;;;;;4.03;1.00;;;;;;;;;;5018152;28;19914;-74
2022/06/17 10:14:17;;;;;;;6.90;1.33;;;;;;;;;;5019861;28;20087;-74
2022/06/17 10:20:05;;;;;;;4.13;1.10;;;;;;;;;;5020842;28;20136;-75
2022/06/17 10:22:39;;;;;;;2.92;1.20;;;;;;;;;;5021430;28;20036;-75
2022/06/17 10:25:30;;;;;;;5.47;0.85;;;;;;;;;;5020827;28;20111;-74
2022/06/17 10:28:14;;;;;;;3.40;1.10;;;;;;;;;;5020507;28;20025;-75
2022/06/17 10:30:50;;;;;;;9.75;1.10;;;;;;;;;;5004293;28;20391;-79
2022/06/17 10:33:16;;;;;;;2.88;0.95;;;;;;;;;;5017690;28;20446;-77
2022/06/17 10:35:45;;;;;;;1.52;0.98;;;;;;;;;;5017440;28;20018;-75
2022/06/17 10:38:17;;;;;;;3.38;0.98;;;;;;;;;;5017687;28;20026;-76
2022/06/17 10:40:42;;;;;;;2.78;1.00;;;;;;;;;;5019401;28;20491;-76
2022/06/17 10:43:14;;;;;;;1.23;0.90;;;;;;;;;;5018528;28;20029;-75
2022/06/17 10:45:40;;;;;;;1.25;0.80;;;;;;;;;;5018228;28;20443;-76
2022/06/17 10:48:36;;;;;;;3.47;1.40;;;;;;;;;;5017312;28;20061;-75
2022/06/17 10:51:03;;;;;;;2.08;1.00;;;;;;;;;;5017707;28;20029;-75
2022/06/17 10:53:40;;;;;;;2.67;1.02;;;;;;;;;;5016075;28;20038;-75
2022/06/17 10:56:11;;;;;;;2.28;1.10;;;;;;;;;;5015279;28;20018;-75
2022/06/17 10:58:37;;;;;;;4.63;0.90;;;;;;;;;;5017760;28;20060;-76
2022/06/17 11:01:10;;;;;;;8.65;1.08;;;;;;;;;;5015974;28;20029;-76
2022/06/17 11:03:41;;;;;;;2.58;0.80;;;;;;;;;;5017079;28;20037;-75
2022/06/17 11:06:17;;;;;;;4.68;1.08;;;;;;;;;;5017410;28;20032;-75
2022/06/17 11:08:54;;;;;;;4.97;1.10;;;;;;;;;;5016914;28;20033;-74
2022/06/17 11:14:39;;;;;;;3.17;0.90;;;;;;;;;;5017344;28;20109;-75
2022/06/17 11:17:29;;;;;;;4.05;1.02;;;;;;;;;;5018139;28;20033;-75
2022/06/17 11:19:58;;;;;;;4.95;1.10;;;;;;;;;;5017685;28;20022;-76
2022/06/17 11:22:32;;;;;;;2.97;1.00;;;;;;;;;;5017802;28;20036;-76
2022/06/17 11:25:04;;;;;;;1.95;0.90;;;;;;;;;;5017893;28;20059;-75
2022/06/17 11:27:41;;;;;;;2.33;1.00;;;;;;;;;;5017668;28;20029;-76
2022/06/17 11:30:31;;;;;;;1.90;0.90;;;;;;;;;;5017954;28;20038;-75
2022/06/17 11:32:58;;;;;;;2.30;1.10;;;;;;;;;;5017635;28;20018;-75
2022/06/17 11:35:28;;;;;;;3.45;1.02;;;;;;;;;;5017119;28;20022;-75
2022/06/17 11:37:55;;;;;;;4.70;1.30;;;;;;;;;;5017768;28;20022;-75
2022/06/17 11:40:28;;;;;;;3.47;1.20;;;;;;;;;;5016600;28;20034;-76
2022/06/17 11:42:57;;;;;;;2.35;1.00;;;;;;;;;;5017152;28;20026;-75
2022/06/17 11:45:30;;;;;;;2.58;0.95;;;;;;;;;;5017503;28;20029;-75
2022/06/17 11:48:00;;;;;;;5.07;0.90;;;;;;;;;;5016681;28;20022;-76
2022/06/17 11:50:30;;;;;;;1.00;0.80;;;;;;;;;;5016946;28;20096;-75
2022/06/17 11:53:17;;;;;;;2.78;1.05;;;;;;;;;;5016402;28;20498;-74
2022/06/17 11:55:47;;;;;;;2.13;1.25;;;;;;;;;;5016707;28;20022;-76
2022/06/17 11:58:13;;;;;;;3.67;0.88;;;;;;;;;;5016360;28;20033;-76
2022/06/17 12:00:46;;;;;;;2.70;1.00;;;;;;;;;;5017443;28;20060;-75
2022/06/17 12:03:14;;;;;;;2.80;1.00;;;;;;;;;;5017273;28;20042;-75
2022/06/17 12:05:42;;;;;;;2.35;1.10;;;;;;;;;;5017391;28;20066;-75
2022/06/17 12:08:17;;;;;;;2.58;1.05;;;;;;;;;;5016954;28;20044;-75
2022/06/17 12:10:50;;;;;;;3.60;1.05;;;;;;;;;;5017140;28;20080;-76
2022/06/17 12:13:18;;;;;;;1.25;0.90;;;;;;;;;;5015389;28;20483;-75
2022/06/17 12:15:58;;;;;;;4.03;0.95;;;;;;;;;;5016764;28;20569;-74
2022/06/17 12:18:34;;;;;;;5.47;0.95;;;;;;;;;;5016745;28;20021;-76
2022/06/17 12:21:15;;;;;;;3.40;1.02;;;;;;;;;;5017095;28;20029;-76
2022/06/17 12:23:48;;;;;;;5.40;1.10;;;;;;;;;;5017359;28;20030;-76
2022/06/17 12:26:28;;;;;;;2.15;0.80;;;;;;;;;;5015937;28;20108;-76
2022/06/17 12:29:12;;;;;;;2.92;0.95;;;;;;;;;;5017413;28;20026;-75
2022/06/17 12:31:51;;;;;;;;;;;;;;;;;;5017513;28;20036;-75
2022/06/17 12:34:36;;;;;;;1.58;0.90;;;;;;;;;;5015994;28;19914;-75
2022/06/17 12:37:32;;;;;;;4.97;1.08;;;;;;;;;;5015759;28;20018;-75
2022/06/17 12:40:06;;;;;;;3.53;0.90;;;;;;;;;;5015976;28;20030;-75
2022/06/17 12:42:57;;;;;;;1.48;0.80;;;;;;;;;;5014510;28;20484;-74
2022/06/17 12:45:33;;;;;;;6.82;1.67;;;;;;;;;;5015305;28;20104;-74
2022/06/17 12:48:31;;;;;;;4.03;0.98;;;;;;;;;;5014154;28;20025;-75
2022/06/17 12:53:53;;;;;;;3.92;1.00;;;;;;;;;;5015435;28;20045;-75
2022/06/17 12:56:29;;;;;;;0.75;0.70;;;;;;;;;;5014344;28;20546;-75
2022/06/17 12:59:24;;;;;;;6.45;1.00;;;;;;;;;;5015463;28;20052;-75
2022/06/17 13:02:07;;;;;;;2.53;0.88;;;;;;;;;;5015671;28;20036;-75
2022/06/17 13:04:49;;;;;;;2.75;1.00;;;;;;;;;;5014171;28;20128;-75
2022/06/17 13:07:20;;;;;;;3.17;0.80;;;;;;;;;;5015966;28;20034;-75
2022/06/17 13:10:39;;;;;;;4.50;0.80;;;;;;;;;;5014145;28;20022;-75
2022/06/17 13:12:44;;;;;;;3.53;1.00;;;;;;;;;;5015356;28;20038;-75
2022/06/17 13:15:21;;;;;;;1.08;0.70;;;;;;;;;;5015282;28;20022;-76
2022/06/17 13:18:07;;;;;;;2.63;1.10;;;;;;;;;;5015320;28;20018;-76
2022/06/17 13:20:39;;;;;;;1.75;1.08;;;;;;;;;;5018290;28;20034;-76
2022/06/17 13:23:20;;;;;;;4.28;1.00;;;;;;;;;;5018786;28;20108;-75
2022/06/17 13:25:53;;;;;;;2.50;0.98;;;;;;;;;;5019173;28;20108;-74
2022/06/17 13:28:30;;;;;;;3.03;1.00;;;;;;;;;;5019673;28;20061;-75
2022/06/17 13:31:00;;;;;;;1.05;0.70;;;;;;;;;;5019708;28;20502;-76
2022/06/17 13:33:35;;;;;;;3.83;0.90;;;;;;;;;;5019704;28;20117;-75
2022/06/17 13:36:05;;;;;;;1.67;0.80;;;;;;;;;;5019975;28;20025;-75
2022/06/17 13:38:36;;;;;;;2.63;0.90;;;;;;;;;;5019112;28;20057;-74
2022/06/17 13:41:12;;;;;;;6.47;0.90;;;;;;;;;;5019976;28;20021;-75
2022/06/17 13:43:45;;;;;;;2.60;0.80;;;;;;;;;;5017059;28;20022;-75
2022/06/17 13:46:26;;;;;;;1.85;1.00;;;;;;;;;;5019305;28;20037;-77
2022/06/17 13:49:01;;;;;;;2.40;0.82;;;;;;;;;;5018779;28;20076;-75
2022/06/17 13:51:35;;;;;;;2.45;0.90;;;;;;;;;;5019382;28;20036;-75
2022/06/17 13:54:08;;;;;;;2.35;0.82;;;;;;;;;;5018774;28;20033;-75
2022/06/17 13:56:52;;;;;;;1.23;0.80;;;;;;;;;;5018664;28;20014;-76
2022/06/17 13:59:41;;;;;;;4.05;1.00;;;;;;;;;;5018063;28;20490;-76
2022/06/17 14:02:12;;;;;;;1.65;0.70;;;;;;;;;;5018846;28;20042;-76
2022/06/17 14:04:56;;;;;;;3.13;0.80;;;;;;;;;;5018361;28;20033;-75
2022/06/17 14:07:21;;;;;;;0.85;0.80;;;;;;;;;;5018196;28;20112;-74
2022/06/17 14:09:47;;;;;;;1.87;0.97;;;;;;;;;;5018427;28;20580;-76
2022/06/17 14:12:42;;;;;;;1.17;0.70;;;;;;;;;;5016858;28;20256;-76
2022/06/17 14:15:17;;;;;;;2.25;1.00;;;;;;;;;;5017924;28;20030;-76
2022/06/17 14:17:49;;;;;;;1.73;0.73;;;;;;;;;;5016858;28;20112;-75
2022/06/17 14:20:52;;;;;;;21.43;1.20;;;;;;;;;;5018305;28;20038;-75
2022/06/17 14:23:20;;;;;;;1.25;0.77;;;;;;;;;;5015350;28;20199;-75
2022/06/17 14:25:50;;;;;;;3.85;0.90;;;;;;;;;;5016626;28;20029;-75
2022/06/17 14:28:34;;;;;;;1.83;0.90;;;;;;;;;;5018040;28;20030;-75
2022/06/17 14:31:25;;;;;;;2.03;0.90;;;;;;;;;;5017030;28;20052;-75
2022/06/17 14:33:53;;;;;;;2.33;0.90;;;;;;;;;;5025068;28;20561;-76
2022/06/17 14:36:51;;;;;;;1.77;0.73;;;;;;;;;;5018230;28;20032;-75
2022/06/17 14:39:38;;;;;;;2.55;0.90;;;;;;;;;;5017123;28;20498;-75
2022/06/17 14:42:18;;;;;;;1.20;0.80;;;;;;;;;;5018076;28;20390;-74
2022/06/17 14:45:10;;;;;;;1.45;0.60;;;;;;;;;;5018723;28;20025;-75
2022/06/17 14:48:09;;;;;;;2.92;0.65;;;;;;;;;;5020094;28;20033;-74
2022/06/17 14:50:51;;;;;;;5.55;0.90;;;;;;;;;;5021341;28;20029;-74
2022/06/17 14:53:24;;;;;;;3.70;0.80;;;;;;;;;;5020677;28;20121;-76
2022/06/17 14:55:59;;;;;;;1.65;1.00;;;;;;;;;;5021835;28;20032;-75
2022/06/17 14:58:45;;;;;;;2.72;0.90;;;;;;;;;;5021207;28;20029;-74
2022/06/17 15:01:37;;;;;;;1.15;0.80;;;;;;;;;;5022036;28;20091;-75
2022/06/17 15:04:14;;;;;;;3.78;0.93;;;;;;;;;;5022722;28;20040;-75
2022/06/17 15:06:45;;;;;;;2.75;0.70;;;;;;;;;;5022723;28;20066;-75
2022/06/17 15:09:33;;;;;;;4.35;0.80;;;;;;;;;;5020882;28;20057;-76
2022/06/17 15:12:16;;;;;;;2.60;0.80;;;;;;;;;;5021612;28;20029;-75
2022/06/17 15:14:46;;;;;;;1.25;0.90;;;;;;;;;;5020233;28;20514;-75
2022/06/17 15:17:28;;;;;;;2.70;0.68;;;;;;;;;;5021047;28;20422;-76
2022/06/17 15:19:53;;;;;;;3.30;0.90;;;;;;;;;;5022656;28;20080;-76
2022/06/17 15:22:29;;;;;;;7.60;1.17;;;;;;;;;;5021113;28;20022;-75
2022/06/17 15:25:27;;;;;;;1.48;0.70;;;;;;;;;;5020680;28;20068;-75
2022/06/17 15:28:16;;;;;;;3.28;0.90;;;;;;;;;;5021052;28;20036;-76
2022/06/17 15:30:44;;;;;;;1.98;0.80;;;;;;;;;;5021310;28;20060;-76
2022/06/17 15:33:24;;;;;;;2.13;0.60;;;;;;;;;;5022093;28;20030;-76
2022/06/17 15:36:01;;;;;;;1.75;1.00;;;;;;;;;;5023181;28;20022;-76